sensor_id;sensor_type;location;lat;lon;timestamp;pressure;altitude;pressure_sealevel;temperature;humidity
15558;BME280;7880;50.110;9.372;2023-02-03T00:00:55;4.82503504511551;;;4.937;100.0
15558;BME280;7880;50.110;9.372;2023-02-03T00:06:04;4.814951099368045;;;4.937;100.0
15558;BME280;7880;50.110;9.372;2023-02-03T00:11:01;4.855286889342824;;;4.937;100.0
15558;BME280;7880;50.110;9.372;2023-02-03T00:16:06;4.855286889342824;;;4.937;100.0
15558;BME280;7880;50.110;9.372;2023-02-03T00:21:09;4.865370839746902;;;5.0;100.0
15558;BME280;7880;50.110;9.372;2023-02-03T00:26:16;4.895622697944054;;;5.062;100.0
15558;BME280;7880;50.110;9.372;2023-02-03T00:31:35;4.925874566618586;;;5.062;100.0
15558;BME280;7880;50.110;9.372;2023-02-03T00:36:22;4.900664675328881;;;5.062;100.0
15558;BME280;7880;50.110;9.372;2023-02-03T00:41:30;4.920832587778568;;;5.062;100.0
15558;BME280;7880;50.110;9.372;2023-02-03T00:46:31;4.915790609229589;;;5.062;100.0
15558;BME280;7880;50.110;9.372;2023-02-03T00:51:39;4.915790609229589;;;5.062;100.0
15558;BME280;7880;50.110;9.372;2023-02-03T00:56:45;4.935958525171737;;;5.062;100.0
15558;BME280;7880;50.110;9.372;2023-02-03T01:01:43;4.920832587778568;;;5.062;100.0
15558;BME280;7880;50.110;9.372;2023-02-03T01:06:57;4.915790609229589;;;5.062;100.0
15558;BME280;7880;50.110;9.372;2023-02-03T01:11:52;4.925874566618586;;;5.062;100.0
15558;BME280;7880;50.110;9.372;2023-02-03T01:16:57;4.930916545749642;;;5.062;100.0
15558;BME280;7880;50.110;9.372;2023-02-03T01:22:09;4.935958525171737;;;5.062;100.0
15558;BME280;7880;50.110;9.372;2023-02-03T01:27:10;4.941000504884869;;;5.062;100.0
15558;BME280;7880;50.110;9.372;2023-02-03T01:32:08;4.956126445770496;;;5.062;100.0
15558;BME280;7880;50.110;9.372;2023-02-03T01:37:19;4.9712523892754685;;;5.125;100.0
15558;BME280;7880;50.110;9.372;2023-02-03T01:42:19;5.011588251427748;;;5.125;100.0
15558;BME280;7880;50.110;9.372;2023-02-03T01:47:30;5.006546267640078;;;5.125;100.0
15558;BME280;7880;50.110;9.372;2023-02-03T01:52:30;5.026714204536984;;;5.125;100.0
15558;BME280;7880;50.110;9.372;2023-02-03T01:57:39;5.036798174731667;;;5.187;100.0
15558;BME280;7880;50.110;9.372;2023-02-03T02:02:38;5.046882146090502;;;5.187;100.0
15558;BME280;7880;50.110;9.372;2023-02-03T02:07:43;5.082176055014133;;;5.25;100.0
15558;BME280;7880;50.110;9.372;2023-02-03T02:12:49;5.072092079580761;;;5.187;100.0
15558;BME280;7880;50.110;9.372;2023-02-03T02:18:09;5.087218043167377;;;5.25;100.0
15558;BME280;7880;50.110;9.372;2023-02-03T02:23:59;5.122511968389153;;;5.25;100.0
15558;BME280;7880;50.110;9.372;2023-02-03T02:28:57;5.112427988299169;;;5.25;100.0
15558;BME280;7880;50.110;9.372;2023-02-03T02:33:52;5.1527639156440275;;;5.312;100.0
15558;BME280;7880;50.110;9.372;2023-02-03T02:38:58;5.1527639156440275;;;5.312;100.0
15558;BME280;7880;50.110;9.372;2023-02-03T02:44:00;5.1527639156440275;;;5.312;100.0
15558;BME280;7880;50.110;9.372;2023-02-03T02:49:20;5.167889893200481;;;5.312;100.0
15558;BME280;7880;50.110;9.372;2023-02-03T02:54:09;5.18805786735029;;;5.312;100.0
15558;BME280;7880;50.110;9.372;2023-02-03T02:59:16;5.177973879693309;;;5.312;100.0
15558;BME280;7880;50.110;9.372;2023-02-03T03:04:33;5.177973879693309;;;5.312;100.0
15558;BME280;7880;50.110;9.372;2023-02-03T03:09:23;5.172931886301376;;;5.312;100.0
15558;BME280;7880;50.110;9.372;2023-02-03T03:14:26;5.162847900390625;;;5.312;100.0
15558;BME280;7880;50.110;9.372;2023-02-03T03:19:31;5.117469978198642;;;5.25;100.0
15558;BME280;7880;50.110;9.372;2023-02-03T03:24:33;5.117469978198642;;;5.25;100.0
15558;BME280;7880;50.110;9.372;2023-02-03T03:29:41;5.117469978198642;;;5.25;100.0
15558;BME280;7880;50.110;9.372;2023-02-03T03:34:41;5.1275539588707035;;;5.25;100.0
15558;BME280;7880;50.110;9.372;2023-02-03T03:39:48;5.132595949643291;;;5.25;100.0
15558;BME280;7880;50.110;9.372;2023-02-03T03:44:52;5.142679932061583;;;5.25;100.0
15558;BME280;7880;50.110;9.372;2023-02-03T03:49:56;5.157805907871807;;;5.312;100.0
15558;BME280;7880;50.110;9.372;2023-02-03T03:54:56;5.172931886301376;;;5.312;100.0
15558;BME280;7880;50.110;9.372;2023-02-03T04:00:01;5.177973879693309;;;5.312;100.0
15558;BME280;7880;50.110;9.372;2023-02-03T04:05:13;5.18301587337628;;;5.312;100.0
15558;BME280;7880;50.110;9.372;2023-02-03T04:10:18;5.18805786735029;;;5.312;100.0
15558;BME280;7880;50.110;9.372;2023-02-03T04:15:18;5.18301587337628;;;5.312;100.0
15558;BME280;7880;50.110;9.372;2023-02-03T04:20:20;5.203183851018548;;;5.312;100.0
15558;BME280;7880;50.110;9.372;2023-02-03T04:25:24;5.203183851018548;;;5.375;100.0
15558;BME280;7880;50.110;9.372;2023-02-03T04:30:31;5.218309837306151;;;5.375;100.0
15558;BME280;7880;50.110;9.372;2023-02-03T04:35:32;5.193099861615337;;;5.375;100.0
15558;BME280;7880;50.110;9.372;2023-02-03T04:40:36;5.203183851018548;;;5.375;100.0
15558;BME280;7880;50.110;9.372;2023-02-03T04:44:44;5.198141856171423;;;5.312;100.0
15558;BME280;7880;50.110;9.372;2023-02-03T04:49:48;5.198141856171423;;;5.312;100.0
15558;BME280;7880;50.110;9.372;2023-02-03T04:54:51;5.177973879693309;;;5.312;100.0
15558;BME280;7880;50.110;9.372;2023-02-03T05:00:15;5.172931886301376;;;5.312;100.0
15558;BME280;7880;50.110;9.372;2023-02-03T05:05:00;5.177973879693309;;;5.312;100.0
15558;BME280;7880;50.110;9.372;2023-02-03T05:10:04;5.193099861615337;;;5.312;100.0
15558;BME280;7880;50.110;9.372;2023-02-03T05:15:08;5.177973879693309;;;5.312;100.0
15558;BME280;7880;50.110;9.372;2023-02-03T05:20:14;5.177973879693309;;;5.312;100.0
15558;BME280;7880;50.110;9.372;2023-02-03T05:25:15;5.18805786735029;;;5.312;100.0
15558;BME280;7880;50.110;9.372;2023-02-03T05:30:19;5.193099861615337;;;5.312;100.0
15558;BME280;7880;50.110;9.372;2023-02-03T05:35:23;5.157805907871807;;;5.312;100.0
15558;BME280;7880;50.110;9.372;2023-02-03T05:47:14;5.137637940706918;;;5.25;100.0
15558;BME280;7880;50.110;9.372;2023-02-03T05:52:18;5.122511968389153;;;5.25;100.0
15558;BME280;7880;50.110;9.372;2023-02-03T05:57:23;5.137637940706918;;;5.25;100.0
15558;BME280;7880;50.110;9.372;2023-02-03T06:02:26;5.1477219237072855;;;5.25;100.0
15558;BME280;7880;50.110;9.372;2023-02-03T06:07:29;5.157805907871807;;;5.312;100.0
15558;BME280;7880;50.110;9.372;2023-02-03T06:12:38;5.1477219237072855;;;5.25;100.0
15558;BME280;7880;50.110;9.372;2023-02-03T06:17:37;5.157805907871807;;;5.25;100.0
15558;BME280;7880;50.110;9.372;2023-02-03T06:22:42;5.1477219237072855;;;5.25;100.0
15558;BME280;7880;50.110;9.372;2023-02-03T06:27:46;5.122511968389153;;;5.25;100.0
15558;BME280;7880;50.110;9.372;2023-02-03T06:32:50;5.137637940706918;;;5.312;100.0
15558;BME280;7880;50.110;9.372;2023-02-03T06:37:52;5.1527639156440275;;;5.312;100.0
15558;BME280;7880;50.110;9.372;2023-02-03T06:42:56;5.167889893200481;;;5.312;100.0
15558;BME280;7880;50.110;9.372;2023-02-03T06:48:00;5.157805907871807;;;5.312;100.0
15558;BME280;7880;50.110;9.372;2023-02-03T06:53:02;5.157805907871807;;;5.312;100.0
15558;BME280;7880;50.110;9.372;2023-02-03T06:58:12;5.193099861615337;;;5.312;100.0
15558;BME280;7880;50.110;9.372;2023-02-03T07:03:25;5.177973879693309;;;5.312;100.0
15558;BME280;7880;50.110;9.372;2023-02-03T07:08:14;5.177973879693309;;;5.312;100.0
15558;BME280;7880;50.110;9.372;2023-02-03T07:13:18;5.177973879693309;;;5.312;100.0
15558;BME280;7880;50.110;9.372;2023-02-03T07:18:27;5.193099861615337;;;5.312;100.0
15558;BME280;7880;50.110;9.372;2023-02-03T07:23:34;5.198141856171423;;;5.312;100.0
15558;BME280;7880;50.110;9.372;2023-02-03T07:28:29;5.2233518333174285;;;5.375;100.0
15558;BME280;7880;50.110;9.372;2023-02-03T07:33:32;5.258645813545445;;;5.437;100.0
15558;BME280;7880;50.110;9.372;2023-02-03T07:38:37;5.283855808153748;;;5.437;100.0
15558;BME280;7880;50.110;9.372;2023-02-03T07:44:31;5.273771809437312;;;5.437;100.0
15558;BME280;7880;50.110;9.372;2023-02-03T07:49:35;5.278813808650011;;;5.437;100.0
15558;BME280;7880;50.110;9.372;2023-02-03T07:54:39;5.283855808153748;;;5.437;100.0
15558;BME280;7880;50.110;9.372;2023-02-03T07:59:45;5.293939808034338;;;5.437;100.0
15558;BME280;7880;50.110;9.372;2023-02-03T08:04:49;5.324191814661026;;;5.5;100.0
15558;BME280;7880;50.110;9.372;2023-02-03T08:09:59;5.359485835634405;;;5.5;100.0
15558;BME280;7880;50.110;9.372;2023-02-03T08:14:59;5.37461184898857;;;5.5;100.0
15558;BME280;7880;50.110;9.372;2023-02-03T08:20:03;5.3947798708686605;;;5.5;100.0
15558;BME280;7880;50.110;9.372;2023-02-03T08:25:10;5.414947897405364;;;5.562;100.0
15558;BME280;7880;50.110;9.372;2023-02-03T08:30:13;5.450241955049568;;;5.625;100.0
15558;BME280;7880;50.110;9.372;2023-02-03T08:35:16;5.485536026954651;;;5.625;100.0
15558;BME280;7880;50.110;9.372;2023-02-03T08:40:19;5.5309141403588;;;5.687;100.0
15558;BME280;7880;50.110;9.372;2023-02-03T08:45:23;5.5258721265941855;;;5.687;100.0
15558;BME280;7880;50.110;9.372;2023-02-03T08:50:27;5.546040183398873;;;5.687;100.0
15558;BME280;7880;50.110;9.372;2023-02-03T08:55:30;5.515788099938073;;;5.687;100.0
15558;BME280;7880;50.110;9.372;2023-02-03T09:00:52;5.535956154414452;;;5.687;100.0
15558;BME280;7880;50.110;9.372;2023-02-03T09:05:38;5.55108219832764;;;5.687;100.0
15558;BME280;7880;50.110;9.372;2023-02-03T09:10:43;5.591418328235159;;;5.75;100.0
15558;BME280;7880;50.110;9.372;2023-02-03T09:15:47;5.591418328235159;;;5.75;100.0
15558;BME280;7880;50.110;9.372;2023-02-03T09:20:59;5.631754476769129;;;5.812;100.0
15558;BME280;7880;50.110;9.372;2023-02-03T09:25:55;5.651922558021033;;;5.812;100.0
15558;BME280;7880;50.110;9.372;2023-02-03T09:30:59;5.677132666134275;;;5.812;100.0
15558;BME280;7880;50.110;9.372;2023-02-03T09:36:03;5.692258734494681;;;5.875;100.0
15558;BME280;7880;50.110;9.372;2023-02-03T09:41:18;5.7073848054744305;;;5.875;100.0
15558;BME280;7880;50.110;9.372;2023-02-03T09:46:18;5.727552904188633;;;5.875;100.0
15558;BME280;7880;50.110;9.372;2023-02-03T09:50:55;5.7830151996633505;;;5.937;100.0
15558;BME280;7880;50.110;9.372;2023-02-03T09:55:59;5.8183094060281295;;;6.0;100.0
15558;BME280;7880;50.110;9.372;2023-02-03T10:01:07;5.813267375674331;;;6.0;100.0
15558;BME280;7880;50.110;9.372;2023-02-03T10:06:13;5.833435498835752;;;6.0;100.0
15558;BME280;7880;50.110;9.372;2023-02-03T10:11:40;5.848561594262719;;;6.0;100.0
15558;BME280;7880;50.110;9.372;2023-02-03T10:16:37;5.89393989625969;;;6.062;100.0
15558;BME280;7880;50.110;9.372;2023-02-03T10:21:33;5.929234147444367;;;6.125;100.0
15558;BME280;7880;50.110;9.372;2023-02-03T10:26:37;5.969570451974869;;;6.125;100.0
15558;BME280;7880;50.110;9.372;2023-02-03T10:31:38;5.989738611225039;;;6.187;100.0
15558;BME280;7880;50.110;9.372;2023-02-03T10:36:53;6.009906775131822;;;6.187;100.0
15558;BME280;7880;50.110;9.372;2023-02-03T10:41:49;6.050243116915226;;;6.25;100.0
15558;BME280;7880;50.110;9.372;2023-02-03T10:46:51;6.1157897120399864;;;6.312;100.0
15558;BME280;7880;50.110;9.372;2023-02-03T10:51:59;6.146042003302137;;;6.312;100.0
15558;BME280;7880;50.110;9.372;2023-02-03T10:57:03;6.18133635635022;;;6.375;100.0
15558;BME280;7880;50.110;9.372;2023-02-03T11:02:13;6.1964625120221175;;;6.375;100.0
15558;BME280;7880;50.110;9.372;2023-02-03T11:07:23;6.221672777296044;;;6.437;100.0
15558;BME280;7880;50.110;9.372;2023-02-03T11:12:15;6.241840994753875;;;6.437;100.0
15558;BME280;7880;50.110;9.372;2023-02-03T11:17:17;6.206546617258573;;;6.375;100.0
15558;BME280;7880;50.110;9.372;2023-02-03T11:22:29;6.221672777296044;;;6.375;100.0
15558;BME280;7880;50.110;9.372;2023-02-03T11:27:34;6.221672777296044;;;6.375;100.0
15558;BME280;7880;50.110;9.372;2023-02-03T11:32:36;6.226714831223944;;;6.375;100.0
15558;BME280;7880;50.110;9.372;2023-02-03T11:38:28;6.216630723659182;;;6.375;100.0
15558;BME280;7880;50.110;9.372;2023-02-03T11:43:17;6.201504564494826;;;6.375;100.0
15558;BME280;7880;50.110;9.372;2023-02-03T11:48:29;6.2115886703133585;;;6.375;100.0
15558;BME280;7880;50.110;9.372;2023-02-03T11:53:29;6.246883049845929;;;6.437;100.0
15558;BME280;7880;50.110;9.372;2023-02-03T11:59:02;6.226714831223944;;;6.437;100.0
15558;BME280;7880;50.110;9.372;2023-02-03T12:04:14;6.2115886703133585;;;6.375;100.0
15558;BME280;7880;50.110;9.372;2023-02-03T12:09:14;6.186378407949815;;;6.312;100.0
15558;BME280;7880;50.110;9.372;2023-02-03T12:14:18;6.110747664514929;;;6.25;100.0
15558;BME280;7880;50.110;9.372;2023-02-03T12:19:17;6.0956215236859865;;;6.187;100.0
15558;BME280;7880;50.110;9.372;2023-02-03T12:24:26;6.045201073173667;;;6.187;100.0
15558;BME280;7880;50.110;9.372;2023-02-03T12:29:24;5.994780651765177;;;6.125;100.0
15558;BME280;7880;50.110;9.372;2023-02-03T12:34:29;5.984696570975939;;;6.125;100.0
15558;BME280;7880;50.110;9.372;2023-02-03T12:39:32;6.014948816836113;;;6.125;100.0
15558;BME280;7880;50.110;9.372;2023-02-03T12:44:41;6.045201073173667;;;6.187;100.0
15558;BME280;7880;50.110;9.372;2023-02-03T12:49:40;6.045201073173667;;;6.187;100.0
15558;BME280;7880;50.110;9.372;2023-02-03T12:54:45;6.025032901117811;;;6.187;100.0
15558;BME280;7880;50.110;9.372;2023-02-03T12:59:54;6.004864733718568;;;6.125;100.0
15558;BME280;7880;50.110;9.372;2023-02-03T13:04:53;5.959486374096014;;;6.125;100.0
15558;BME280;7880;50.110;9.372;2023-02-03T13:09:58;5.9443602594605185;;;6.062;100.0
15558;BME280;7880;50.110;9.372;2023-02-03T13:15:03;5.9191500742221255;;;6.0;100.0
15558;BME280;7880;50.110;9.372;2023-02-03T13:20:14;5.89393989625969;;;6.0;100.0
15558;BME280;7880;50.110;9.372;2023-02-03T13:25:16;5.878813792974688;;;6.0;100.0
15558;BME280;7880;50.110;9.372;2023-02-03T13:30:24;5.878813792974688;;;6.0;100.0
15558;BME280;7880;50.110;9.372;2023-02-03T13:35:28;5.883855827111984;;;6.0;100.0
15558;BME280;7880;50.110;9.372;2023-02-03T13:40:29;5.888897861540317;;;6.0;100.0
15558;BME280;7880;50.110;9.372;2023-02-03T13:45:27;5.888897861540317;;;6.0;100.0
15558;BME280;7880;50.110;9.372;2023-02-03T13:50:28;5.883855827111984;;;6.0;100.0
15558;BME280;7880;50.110;9.372;2023-02-03T13:55:36;5.878813792974688;;;6.0;100.0
15558;BME280;7880;50.110;9.372;2023-02-03T14:01:42;5.873771759128431;;;6.0;100.0
15558;BME280;7880;50.110;9.372;2023-02-03T14:06:55;5.8989819312701;;;6.0;100.0
15558;BME280;7880;50.110;9.372;2023-02-03T14:11:45;5.924192110687727;;;6.0;100.0
15558;BME280;7880;50.110;9.372;2023-02-03T14:16:43;5.904023966571549;;;6.0;100.0
15558;BME280;7880;50.110;9.372;2023-02-03T14:21:48;5.939318221830763;;;6.062;100.0
15558;BME280;7880;50.110;9.372;2023-02-03T14:26:50;5.929234147444367;;;6.062;100.0
15558;BME280;7880;50.110;9.372;2023-02-03T14:31:55;5.9443602594605185;;;6.062;100.0
15558;BME280;7880;50.110;9.372;2023-02-03T14:37:09;5.9443602594605185;;;6.062;100.0
15558;BME280;7880;50.110;9.372;2023-02-03T14:42:18;5.934276184492046;;;6.062;100.0
15558;BME280;7880;50.110;9.372;2023-02-03T14:47:11;5.949402297381312;;;6.062;100.0
15558;BME280;7880;50.110;9.372;2023-02-03T14:52:27;5.964528412889922;;;6.062;100.0
15558;BME280;7880;50.110;9.372;2023-02-03T14:57:33;5.999822692596354;;;6.125;100.0
15558;BME280;7880;50.110;9.372;2023-02-03T15:02:17;6.014948816836113;;;6.125;100.0
15558;BME280;7880;50.110;9.372;2023-02-03T15:07:35;6.025032901117811;;;6.125;100.0
15558;BME280;7880;50.110;9.372;2023-02-03T15:12:23;6.030074943695217;;;6.125;100.0
15558;BME280;7880;50.110;9.372;2023-02-03T15:17:40;6.0653692498861345;;;6.125;100.0
15558;BME280;7880;50.110;9.372;2023-02-03T15:22:29;6.0653692498861345;;;6.187;100.0
15558;BME280;7880;50.110;9.372;2023-02-03T15:27:32;6.080495385476388;;;6.187;100.0
15558;BME280;7880;50.110;9.372;2023-02-03T15:32:47;6.090579477325082;;;6.187;100.0
15558;BME280;7880;50.110;9.372;2023-02-03T15:37:45;6.105705617280909;;;6.187;100.0
15558;BME280;7880;50.110;9.372;2023-02-03T15:42:52;6.1157897120399864;;;6.187;100.0
15558;BME280;7880;50.110;9.372;2023-02-03T15:48:05;6.130915856361389;;;6.25;100.0
15558;BME280;7880;50.110;9.372;2023-02-03T15:52:57;6.151084052864462;;;6.25;100.0
15558;BME280;7880;50.110;9.372;2023-02-03T15:57:58;6.176294305041665;;;6.312;100.0
15558;BME280;7880;50.110;9.372;2023-02-03T16:03:05;6.171252254024148;;;6.312;100.0
15558;BME280;7880;50.110;9.372;2023-02-03T16:08:42;6.171252254024148;;;6.312;100.0
15558;BME280;7880;50.110;9.372;2023-02-03T16:13:25;6.1914204598404465;;;6.312;100.0
15558;BME280;7880;50.110;9.372;2023-02-03T16:18:29;6.186378407949815;;;6.312;100.0
15558;BME280;7880;50.110;9.372;2023-02-03T16:23:32;6.2115886703133585;;;6.312;100.0
15558;BME280;7880;50.110;9.372;2023-02-03T16:56:06;6.282177443639375;;;6.375;100.0
15558;BME280;7880;50.110;9.372;2023-02-03T17:01:11;6.302345675067045;;;6.375;100.0
15558;BME280;7880;50.110;9.372;2023-02-03T17:06:14;6.332598030939698;;;6.437;100.0
15558;BME280;7880;50.110;9.372;2023-02-03T17:11:19;6.367892459366703;;;6.437;100.0
15558;BME280;7880;50.110;9.372;2023-02-03T17:16:23;6.388060710584978;;;6.5;100.0
15558;BME280;7880;50.110;9.372;2023-02-03T17:21:26;6.4031869020545855;;;6.5;100.0
15558;BME280;7880;50.110;9.372;2023-02-03T17:26:30;6.423355161421933;;;6.5;100.0
15558;BME280;7880;50.110;9.372;2023-02-03T17:31:32;6.4838599674636495;;;6.562;100.0
15558;BME280;7880;50.110;9.372;2023-02-03T17:36:36;6.488902036525542;;;6.625;100.0
15558;BME280;7880;50.110;9.372;2023-02-03T17:41:40;6.514112386200577;;;6.562;100.0
15558;BME280;7880;50.110;9.372;2023-02-03T17:46:46;6.5241965281078595;;;6.625;100.0
15558;BME280;7880;50.110;9.372;2023-02-03T17:51:48;6.544364815414883;;;6.625;100.0
15558;BME280;7880;50.110;9.372;2023-02-03T17:56:51;6.554448960814625;;;6.687;100.0
15558;BME280;7880;50.110;9.372;2023-02-03T18:01:55;6.569575181097025;;;6.687;100.0
15558;BME280;7880;50.110;9.372;2023-02-03T18:06:59;6.57965932940715;;;6.687;100.0
15558;BME280;7880;50.110;9.372;2023-02-03T18:12:03;6.544364815414883;;;6.625;100.0
15558;BME280;7880;50.110;9.372;2023-02-03T18:17:06;6.53932274315157;;;6.625;100.0
15558;BME280;7880;50.110;9.372;2023-02-03T18:22:11;6.529238599498058;;;6.625;100.0
15558;BME280;7880;50.110;9.372;2023-02-03T18:27:16;6.509070315683493;;;6.562;100.0
15558;BME280;7880;50.110;9.372;2023-02-03T18:32:23;6.534280671179294;;;6.625;100.0
15558;BME280;7880;50.110;9.372;2023-02-03T18:37:26;6.534280671179294;;;6.625;100.0
15558;BME280;7880;50.110;9.372;2023-02-03T18:42:29;6.509070315683493;;;6.562;100.0
15558;BME280;7880;50.110;9.372;2023-02-03T18:47:33;6.473775830212981;;;6.562;100.0
15558;BME280;7880;50.110;9.372;2023-02-03T18:52:38;6.438481359003345;;;6.562;100.0
15558;BME280;7880;50.110;9.372;2023-02-03T18:57:42;6.347724212805042;;;6.437;100.0
15558;BME280;7880;50.110;9.372;2023-02-03T19:02:52;6.287219501059735;;;6.437;100.0
15558;BME280;7880;50.110;9.372;2023-02-03T19:07:51;6.23679893995286;;;6.375;100.0
15558;BME280;7880;50.110;9.372;2023-02-03T19:12:55;6.1157897120399864;;;6.25;100.0
15558;BME280;7880;50.110;9.372;2023-02-03T19:18:08;6.025032901117811;;;6.125;100.0
15558;BME280;7880;50.110;9.372;2023-02-03T19:23:16;5.934276184492046;;;6.062;100.0
15558;BME280;7880;50.110;9.372;2023-02-03T19:28:10;5.89393989625969;;;6.0;100.0
15558;BME280;7880;50.110;9.372;2023-02-03T19:33:15;5.823351436672965;;;5.937;100.0
15558;BME280;7880;50.110;9.372;2023-02-03T19:38:19;5.7426789812801875;;;5.875;100.0
15558;BME280;7880;50.110;9.372;2023-02-03T19:43:24;5.752763034129748;;;5.875;100.0
15558;BME280;7880;50.110;9.372;2023-02-03T19:48:29;5.7426789812801875;;;5.875;100.0
15558;BME280;7880;50.110;9.372;2023-02-03T19:53:31;5.692258734494681;;;5.812;100.0
15558;BME280;7880;50.110;9.372;2023-02-03T19:58:35;5.6468805372715;;;5.75;100.0
15558;BME280;7880;50.110;9.372;2023-02-03T20:03:41;5.581334294012049;;;5.75;100.0
15558;BME280;7880;50.110;9.372;2023-02-03T20:07:16;5.5309141403588;;;5.687;100.0
15558;BME280;7880;50.110;9.372;2023-02-03T20:12:18;5.535956154414452;;;5.687;100.0
15558;BME280;7880;50.110;9.372;2023-02-03T20:17:23;5.480494015809382;;;5.625;100.0
15558;BME280;7880;50.110;9.372;2023-02-03T20:22:27;5.480494015809382;;;5.625;100.0
15558;BME280;7880;50.110;9.372;2023-02-03T20:27:30;5.440157937124605;;;5.562;100.0
15558;BME280;7880;50.110;9.372;2023-02-03T20:32:35;5.460325974138686;;;5.625;100.0
15558;BME280;7880;50.110;9.372;2023-02-03T20:37:40;5.490578038390959;;;5.625;100.0
15558;BME280;7880;50.110;9.372;2023-02-03T20:42:46;5.440157937124605;;;5.625;100.0
15558;BME280;7880;50.110;9.372;2023-02-03T20:47:51;5.460325974138686;;;5.625;100.0
15558;BME280;7880;50.110;9.372;2023-02-03T20:52:55;5.480494015809382;;;5.625;100.0
15558;BME280;7880;50.110;9.372;2023-02-03T20:58:05;5.440157937124605;;;5.562;100.0
15558;BME280;7880;50.110;9.372;2023-02-03T21:10:16;5.455283964448609;;;5.625;100.0
15558;BME280;7880;50.110;9.372;2023-02-03T21:14:58;5.430073920363793;;;5.562;100.0
15558;BME280;7880;50.110;9.372;2023-02-03T21:20:15;5.435115928598679;;;5.562;100.0
15558;BME280;7880;50.110;9.372;2023-02-03T21:25:23;5.3998218770662785;;;5.562;100.0
15558;BME280;7880;50.110;9.372;2023-02-03T21:30:23;5.419989904767135;;;5.562;100.0
15558;BME280;7880;50.110;9.372;2023-02-03T21:35:21;5.3796538540220356;;;5.5;100.0
15558;BME280;7880;50.110;9.372;2023-02-03T21:40:23;5.419989904767135;;;5.562;100.0
15558;BME280;7880;50.110;9.372;2023-02-03T21:45:34;5.40990589033463;;;5.562;100.0
15558;BME280;7880;50.110;9.372;2023-02-03T21:50:32;5.344359824899584;;;5.5;100.0
15558;BME280;7880;50.110;9.372;2023-02-03T21:55:41;5.3695698442461435;;;5.5;100.0
15558;BME280;7880;50.110;9.372;2023-02-03T22:00:43;5.344359824899584;;;5.5;100.0
15558;BME280;7880;50.110;9.372;2023-02-03T22:05:46;5.329233816784108;;;5.437;100.0
15558;BME280;7880;50.110;9.372;2023-02-03T22:10:48;5.3090658100380095;;;5.437;100.0
15558;BME280;7880;50.110;9.372;2023-02-03T22:15:52;5.329233816784108;;;5.437;100.0
15558;BME280;7880;50.110;9.372;2023-02-03T22:21:01;5.29898180841119;;;5.437;100.0
15558;BME280;7880;50.110;9.372;2023-02-03T22:26:02;5.258645813545445;;;5.437;100.0
15558;BME280;7880;50.110;9.372;2023-02-03T22:31:04;5.273771809437312;;;5.437;100.0
15558;BME280;7880;50.110;9.372;2023-02-03T22:36:10;5.253603815496899;;;5.437;100.0
15558;BME280;7880;50.110;9.372;2023-02-03T22:41:13;5.238477823097492;;;5.375;100.0
15558;BME280;7880;50.110;9.372;2023-02-03T22:46:17;5.233435826213099;;;5.375;100.0
15558;BME280;7880;50.110;9.372;2023-02-03T22:51:21;5.228393829619745;;;5.375;100.0
15558;BME280;7880;50.110;9.372;2023-02-03T22:56:30;5.193099861615337;;;5.375;100.0
15558;BME280;7880;50.110;9.372;2023-02-03T23:01:30;5.18301587337628;;;5.312;100.0
15558;BME280;7880;50.110;9.372;2023-02-03T23:06:37;5.18301587337628;;;5.312;100.0
15558;BME280;7880;50.110;9.372;2023-02-03T23:11:50;5.142679932061583;;;5.312;100.0
15558;BME280;7880;50.110;9.372;2023-02-03T23:16:45;5.137637940706918;;;5.25;100.0
15558;BME280;7880;50.110;9.372;2023-02-03T23:21:58;5.132595949643291;;;5.312;100.0
15558;BME280;7880;50.110;9.372;2023-02-03T23:26:53;5.122511968389153;;;5.25;100.0
15558;BME280;7880;50.110;9.372;2023-02-03T23:31:57;5.072092079580761;;;5.25;100.0
15558;BME280;7880;50.110;9.372;2023-02-03T23:37:02;5.001504284143448;;;5.187;100.0
15558;BME280;7880;50.110;9.372;2023-02-03T23:42:07;4.991420318023302;;;5.125;100.0
15558;BME280;7880;50.110;9.372;2023-02-03T23:47:10;4.97629437102587;;;5.125;100.0
15558;BME280;7880;50.110;9.372;2023-02-03T23:52:15;4.8905807208502665;;;5.062;100.0
15558;BME280;7880;50.110;9.372;2023-02-03T23:57:18;4.875454791315133;;;5.0;100.0
